Time;durP1;ratioP1;P1;durP2;ratioP2;P2;SDS_P1;SDS_P2;PMS_P1;PMS_P2;Temp;Humidity;BMP_temperature;BMP_pressure;BME280_temperature;BME280_humidity;BME280_pressure;Samples;Min_cycle;Max_cycle;Signal;HPM_P1;HPM_P2
2022/05/31 00:01:10;;;;;;;;;9.00;9.00;;;;;;;;5037611;28;46308;-71
2022/05/31 00:03:39;;;;;;;;;11.67;9.00;;;;;;;;5036525;28;45536;-72
2022/05/31 00:06:04;;;;;;;;;12.33;10.00;;;;;;;;5037636;28;45419;-71
2022/05/31 00:08:29;;;;;;;;;9.67;9.00;;;;;;;;5038008;28;45362;-71
2022/05/31 00:10:58;;;;;;;;;10.00;10.00;;;;;;;;5037907;28;46287;-70
2022/05/31 00:13:34;;;;;;;;;24.33;21.33;;;;;;;;5036415;28;45376;-72
2022/05/31 00:16:00;;;;;;;;;24.00;21.00;;;;;;;;5038172;28;45467;-72
2022/05/31 00:18:27;;;;;;;;;38.33;29.67;;;;;;;;5037072;28;45424;-72
2022/05/31 00:20:52;;;;;;;;;33.00;29.33;;;;;;;;5035959;28;45376;-72
2022/05/31 00:23:20;;;;;;;;;26.00;25.33;;;;;;;;5038318;28;45389;-72
2022/05/31 00:25:45;;;;;;;;;33.33;26.67;;;;;;;;5035859;28;45380;-72
2022/05/31 00:28:11;;;;;;;;;32.33;27.00;;;;;;;;5036044;28;45361;-73
2022/05/31 00:30:37;;;;;;;;;27.00;25.33;;;;;;;;5035632;28;46244;-72
2022/05/31 00:33:06;;;;;;;;;27.33;21.67;;;;;;;;5035649;28;45401;-72
2022/05/31 00:35:40;;;;;;;;;30.67;25.67;;;;;;;;5035745;28;45436;-72
2022/05/31 00:38:15;;;;;;;;;27.00;24.00;;;;;;;;5032124;28;45344;-72
2022/05/31 00:40:40;;;;;;;;;30.33;24.67;;;;;;;;5032097;28;45428;-73
2022/05/31 00:43:11;;;;;;;;;21.33;17.67;;;;;;;;5035202;28;45412;-73
2022/05/31 00:45:36;;;;;;;;;20.67;20.00;;;;;;;;5035291;28;45282;-72
2022/05/31 00:48:06;;;;;;;;;29.67;23.00;;;;;;;;5036060;28;45364;-72
2022/05/31 00:50:34;;;;;;;;;22.00;20.33;;;;;;;;5035773;28;45530;-72
2022/05/31 00:53:05;;;;;;;;;24.67;21.33;;;;;;;;5035493;28;45410;-72
2022/05/31 00:55:37;;;;;;;;;24.00;22.33;;;;;;;;5035596;28;45511;-72
2022/05/31 00:58:09;;;;;;;;;21.00;20.00;;;;;;;;5035545;28;45436;-73
2022/05/31 01:00:36;;;;;;;;;27.33;24.33;;;;;;;;5034931;28;46440;-72
2022/05/31 01:03:03;;;;;;;;;23.67;20.33;;;;;;;;5035367;28;45401;-72
2022/05/31 01:05:37;;;;;;;;;20.33;16.67;;;;;;;;5035427;28;45460;-72
2022/05/31 01:08:02;;;;;;;;;20.67;16.00;;;;;;;;5034841;28;45542;-72
2022/05/31 01:10:39;;;;;;;;;24.00;19.33;;;;;;;;5034960;28;48206;-72
2022/05/31 01:13:07;;;;;;;;;26.00;23.33;;;;;;;;5035151;28;45373;-72
2022/05/31 01:15:33;;;;;;;;;28.00;26.33;;;;;;;;5035090;28;45397;-72
2022/05/31 01:18:01;;;;;;;;;34.67;24.00;;;;;;;;5035391;28;45472;-72
2022/05/31 01:20:26;;;;;;;;;26.33;23.00;;;;;;;;5035120;28;46524;-72
2022/05/31 01:22:54;;;;;;;;;30.33;25.33;;;;;;;;5034719;28;45507;-72
2022/05/31 01:25:22;;;;;;;;;31.00;24.33;;;;;;;;5038590;28;45345;-72
2022/05/31 01:27:53;;;;;;;;;26.00;23.33;;;;;;;;5040506;28;45267;-72
2022/05/31 01:30:19;;;;;;;;;29.67;25.67;;;;;;;;5040187;28;47600;-72
2022/05/31 01:33:07;;;;;;;;;35.33;31.00;;;;;;;;5040565;28;45437;-72
2022/05/31 01:35:34;;;;;;;;;43.67;32.67;;;;;;;;5018339;28;45394;-72
2022/05/31 01:37:59;;;;;;;;;42.00;32.67;;;;;;;;5018108;28;45907;-72
2022/05/31 01:40:36;;;;;;;;;39.67;34.00;;;;;;;;5018026;28;46051;-72
2022/05/31 01:43:01;;;;;;;;;43.00;33.33;;;;;;;;5017912;28;45525;-72
2022/05/31 01:45:30;;;;;;;;;46.00;36.00;;;;;;;;5018122;28;45378;-72
2022/05/31 01:48:00;;;;;;;;;48.33;34.67;;;;;;;;5018186;28;45211;-72
2022/05/31 01:50:32;;;;;;;;;43.67;35.00;;;;;;;;5017923;28;47327;-72
2022/05/31 01:52:58;;;;;;;;;41.67;33.33;;;;;;;;5017722;28;45460;-72
2022/05/31 01:55:24;;;;;;;;;52.00;39.00;;;;;;;;5017869;28;45432;-72
2022/05/31 01:57:59;;;;;;;;;47.00;36.00;;;;;;;;5018197;28;45353;-72
2022/05/31 02:00:25;;;;;;;;;48.00;38.67;;;;;;;;5017701;28;46148;-72
2022/05/31 02:03:01;;;;;;;;;45.00;36.33;;;;;;;;5017509;28;45318;-72
2022/05/31 02:05:29;;;;;;;;;45.67;35.00;;;;;;;;5017961;28;45383;-72
2022/05/31 02:08:02;;;;;;;;;46.67;37.00;;;;;;;;5017637;28;45383;-72
2022/05/31 02:10:31;;;;;;;;;52.00;39.00;;;;;;;;5017538;28;46708;-72
2022/05/31 02:12:58;;;;;;;;;46.00;37.00;;;;;;;;5031602;28;45525;-72
2022/05/31 02:15:26;;;;;;;;;47.67;37.33;;;;;;;;5039669;28;45442;-72
2022/05/31 02:17:52;;;;;;;;;23.67;14.00;;;;;;;;5039802;28;45396;-72
2022/05/31 02:20:17;;;;;;;;;40.67;33.33;;;;;;;;5038942;28;46624;-72
2022/05/31 02:22:45;;;;;;;;;35.67;30.00;;;;;;;;5039459;28;45668;-72
2022/05/31 02:25:13;;;;;;;;;34.00;30.00;;;;;;;;5039572;28;45360;-72
2022/05/31 02:27:45;;;;;;;;;32.00;28.00;;;;;;;;5039902;28;45234;-72
2022/05/31 02:30:13;;;;;;;;;33.33;27.00;;;;;;;;5039362;28;47367;-72
2022/05/31 02:32:43;;;;;;;;;32.67;28.33;;;;;;;;5039462;28;45429;-72
2022/05/31 02:35:11;;;;;;;;;26.00;22.67;;;;;;;;5039002;28;45242;-72
2022/05/31 02:37:40;;;;;;;;;28.33;27.00;;;;;;;;5039307;28;45524;-72
2022/05/31 02:40:08;;;;;;;;;28.67;28.67;;;;;;;;5039044;28;46506;-72
2022/05/31 02:42:33;;;;;;;;;21.67;19.33;;;;;;;;5039088;28;45437;-72
2022/05/31 02:45:01;;;;;;;;;22.00;20.00;;;;;;;;5038975;28;45310;-72
2022/05/31 02:47:39;;;;;;;;;18.33;17.33;;;;;;;;5039512;28;45515;-71
2022/05/31 02:50:09;;;;;;;;;18.33;15.67;;;;;;;;5039156;28;47244;-72
2022/05/31 02:52:39;;;;;;;;;20.00;18.00;;;;;;;;5038951;28;45464;-72
2022/05/31 02:55:05;;;;;;;;;20.67;16.00;;;;;;;;5038832;28;45310;-72
2022/05/31 02:57:30;;;;;;;;;23.33;16.67;;;;;;;;5038955;28;45305;-72
2022/05/31 02:59:56;;;;;;;;;24.00;20.00;;;;;;;;5039039;28;46076;-72
2022/05/31 03:02:21;;;;;;;;;19.00;16.67;;;;;;;;5038846;28;45452;-72
2022/05/31 03:04:49;;;;;;;;;22.67;16.67;;;;;;;;5039010;28;45291;-72
2022/05/31 03:07:14;;;;;;;;;17.33;13.00;;;;;;;;5038840;28;45219;-72
2022/05/31 03:09:39;;;;;;;;;19.33;13.33;;;;;;;;5038496;28;46353;-72
2022/05/31 03:12:07;;;;;;;;;17.33;15.00;;;;;;;;5038822;28;45275;-72
2022/05/31 03:14:39;;;;;;;;;12.00;12.00;;;;;;;;5039100;28;45376;-72
2022/05/31 03:17:08;;;;;;;;;19.67;16.00;;;;;;;;5039004;28;45463;-72
2022/05/31 03:19:35;;;;;;;;;19.00;15.67;;;;;;;;5038463;28;45468;-72
2022/05/31 03:22:05;;;;;;;;;25.00;17.00;;;;;;;;5038804;28;45331;-72
2022/05/31 03:24:36;;;;;;;;;19.00;15.33;;;;;;;;5038447;28;45721;-72
2022/05/31 03:27:02;;;;;;;;;15.67;14.67;;;;;;;;5038537;28;45553;-72
2022/05/31 03:29:28;;;;;;;;;17.33;15.67;;;;;;;;5038485;28;47306;-72
2022/05/31 03:31:53;;;;;;;;;16.33;15.00;;;;;;;;5038506;28;45258;-72
2022/05/31 03:34:18;;;;;;;;;16.00;15.67;;;;;;;;5038632;28;45509;-72
2022/05/31 03:36:44;;;;;;;;;14.00;13.67;;;;;;;;5038666;28;45168;-72
2022/05/31 03:39:09;;;;;;;;;20.00;17.33;;;;;;;;5038067;28;46913;-73
2022/05/31 03:41:35;;;;;;;;;15.67;15.67;;;;;;;;5038538;28;45254;-73
2022/05/31 03:44:00;;;;;;;;;13.00;13.00;;;;;;;;5036687;28;45294;-72
2022/05/31 03:46:26;;;;;;;;;16.67;15.33;;;;;;;;5038351;28;45223;-73
2022/05/31 03:48:51;;;;;;;;;14.00;14.00;;;;;;;;5036944;28;45285;-73
2022/05/31 03:51:16;;;;;;;;;20.67;19.00;;;;;;;;5038247;28;45215;-73
2022/05/31 03:53:42;;;;;;;;;18.33;15.67;;;;;;;;5038567;28;45334;-73
2022/05/31 03:56:09;;;;;;;;;19.33;17.00;;;;;;;;5038195;28;45151;-73
2022/05/31 03:58:35;;;;;;;;;15.00;12.33;;;;;;;;5038075;28;47431;-73
2022/05/31 04:01:01;;;;;;;;;17.33;16.33;;;;;;;;5037978;28;45581;-73
2022/05/31 04:03:26;;;;;;;;;17.00;16.67;;;;;;;;5038214;28;45250;-72
2022/05/31 04:05:52;;;;;;;;;18.67;15.33;;;;;;;;5038133;28;45416;-73
2022/05/31 04:08:19;;;;;;;;;14.00;14.00;;;;;;;;5038023;28;45550;-73
2022/05/31 04:10:45;;;;;;;;;19.33;15.33;;;;;;;;5037944;28;45225;-73
2022/05/31 04:13:10;;;;;;;;;22.67;18.33;;;;;;;;5037623;28;45237;-72
2022/05/31 04:15:36;;;;;;;;;16.67;15.00;;;;;;;;5038146;28;45367;-72
2022/05/31 04:18:02;;;;;;;;;21.00;15.00;;;;;;;;5037885;28;46081;-72
2022/05/31 04:20:28;;;;;;;;;16.00;13.00;;;;;;;;5037623;28;45369;-72
2022/05/31 04:23:57;;;;;;;;;22.33;20.33;;;;;;;;5037745;28;45350;-72
2022/05/31 04:25:38;;;;;;;;;16.67;16.67;;;;;;;;5037829;28;45294;-72
2022/05/31 04:28:04;;;;;;;;;20.00;17.00;;;;;;;;5037591;28;45503;-72
2022/05/31 04:30:29;;;;;;;;;17.00;15.33;;;;;;;;5037361;28;45314;-72
2022/05/31 04:32:54;;;;;;;;;15.00;12.33;;;;;;;;5037925;28;45384;-72
2022/05/31 04:35:19;;;;;;;;;20.00;16.00;;;;;;;;5037685;28;45347;-72
2022/05/31 04:37:45;;;;;;;;;18.67;18.00;;;;;;;;5037685;28;45337;-72
2022/05/31 04:40:10;;;;;;;;;16.67;14.67;;;;;;;;5037408;28;45266;-72
2022/05/31 04:42:37;;;;;;;;;17.33;13.33;;;;;;;;5037795;28;45303;-72
2022/05/31 04:45:03;;;;;;;;;20.00;16.00;;;;;;;;5037518;28;45465;-72
2022/05/31 04:47:28;;;;;;;;;17.67;15.67;;;;;;;;5036635;28;46231;-72
2022/05/31 04:49:53;;;;;;;;;21.33;16.67;;;;;;;;5037122;28;45458;-73
2022/05/31 04:52:18;;;;;;;;;12.33;12.33;;;;;;;;5037243;28;45457;-72
2022/05/31 04:54:44;;;;;;;;;16.67;14.00;;;;;;;;5036869;28;45309;-72
2022/05/31 04:57:09;;;;;;;;;16.67;13.67;;;;;;;;5037249;28;46369;-72
2022/05/31 04:59:34;;;;;;;;;16.00;14.67;;;;;;;;5036872;28;45277;-72
2022/05/31 05:01:59;;;;;;;;;26.00;21.67;;;;;;;;5036987;28;45301;-73
2022/05/31 05:04:24;;;;;;;;;18.00;17.00;;;;;;;;5037140;28;45325;-72
2022/05/31 05:06:50;;;;;;;;;18.33;15.67;;;;;;;;5036881;28;46093;-72
2022/05/31 05:09:16;;;;;;;;;15.67;15.67;;;;;;;;5037147;28;45306;-72
2022/05/31 05:11:41;;;;;;;;;25.67;23.33;;;;;;;;5036720;28;45440;-72
2022/05/31 05:14:06;;;;;;;;;81.00;76.50;;;;;;;;5037469;28;45313;-72
2022/05/31 05:16:31;;;;;;;;;45.33;38.67;;;;;;;;5035842;28;46485;-72
2022/05/31 05:18:56;;;;;;;;;25.33;22.00;;;;;;;;5036919;28;45251;-72
2022/05/31 05:21:22;;;;;;;;;25.33;23.00;;;;;;;;5036881;28;45316;-72
2022/05/31 05:23:47;;;;;;;;;27.00;23.00;;;;;;;;5036905;28;45314;-72
2022/05/31 05:26:12;;;;;;;;;30.67;25.67;;;;;;;;5035644;28;45389;-72
2022/05/31 05:31:25;;;;;;;;;22.67;21.33;;;;;;;;5036914;28;45337;-72
2022/05/31 05:33:50;;;;;;;;;25.00;24.00;;;;;;;;5036849;28;45536;-72
2022/05/31 05:36:16;;;;;;;;;19.00;17.00;;;;;;;;5036694;28;45491;-72
2022/05/31 05:38:42;;;;;;;;;31.33;30.00;;;;;;;;5036640;28;45259;-72
2022/05/31 05:41:07;;;;;;;;;32.33;28.00;;;;;;;;5036856;28;45446;-72
2022/05/31 05:43:32;;;;;;;;;22.00;22.00;;;;;;;;5037099;28;45400;-72
2022/05/31 05:45:58;;;;;;;;;25.00;20.00;;;;;;;;5036511;28;46131;-72
2022/05/31 05:48:23;;;;;;;;;20.33;17.33;;;;;;;;5036550;28;45262;-72
2022/05/31 05:50:48;;;;;;;;;21.67;18.67;;;;;;;;5036537;28;45211;-72
2022/05/31 05:53:13;;;;;;;;;19.67;18.33;;;;;;;;5036741;28;45345;-72
2022/05/31 05:55:39;;;;;;;;;18.00;16.67;;;;;;;;5035978;28;46112;-72
2022/05/31 05:58:08;;;;;;;;;22.33;19.00;;;;;;;;5035699;28;45250;-72
2022/05/31 06:00:36;;;;;;;;;19.00;16.67;;;;;;;;5036554;28;45373;-72
2022/05/31 06:03:06;;;;;;;;;15.67;15.67;;;;;;;;5036576;28;45302;-72
2022/05/31 06:05:31;;;;;;;;;19.00;17.33;;;;;;;;5036337;28;46688;-72
2022/05/31 06:07:56;;;;;;;;;19.33;19.00;;;;;;;;5036310;28;45255;-72
2022/05/31 06:10:45;;;;;;;;;19.67;15.67;;;;;;;;5036156;28;45459;-72
2022/05/31 06:13:15;;;;;;;;;16.67;16.67;;;;;;;;4958769;28;45515;-72
2022/05/31 06:15:45;;;;;;;;;12.33;12.33;;;;;;;;4958584;28;46213;-73
2022/05/31 06:18:17;;;;;;;;;20.33;19.00;;;;;;;;4958428;28;45404;-72
2022/05/31 06:20:52;;;;;;;;;22.00;17.00;;;;;;;;4958404;28;45407;-72
2022/05/31 06:23:17;;;;;;;;;20.33;19.33;;;;;;;;4958862;28;45601;-72
2022/05/31 06:25:42;;;;;;;;;16.33;15.00;;;;;;;;4958159;28;45397;-72
2022/05/31 06:28:08;;;;;;;;;18.00;15.67;;;;;;;;4958408;28;45434;-72
2022/05/31 06:30:33;;;;;;;;;18.67;17.33;;;;;;;;4958630;28;45375;-72
2022/05/31 06:32:58;;;;;;;;;17.00;17.00;;;;;;;;4958571;28;45470;-72
2022/05/31 06:35:23;;;;;;;;;19.67;17.00;;;;;;;;4942003;28;46688;-72
2022/05/31 06:37:49;;;;;;;;;30.00;18.33;;;;;;;;4958150;28;45450;-72
2022/05/31 06:40:15;;;;;;;;;26.00;23.33;;;;;;;;4958135;28;45437;-72
2022/05/31 06:42:41;;;;;;;;;16.00;14.00;;;;;;;;4958503;28;45499;-72
2022/05/31 06:45:06;;;;;;;;;27.67;27.33;;;;;;;;4957940;28;45998;-72
2022/05/31 06:47:31;;;;;;;;;21.67;19.00;;;;;;;;4957996;28;45484;-72
2022/05/31 06:49:56;;;;;;;;;17.67;15.00;;;;;;;;4990966;28;45407;-72
2022/05/31 06:57:49;;;;;;;;;16.67;15.33;;;;;;;;5038788;28;45326;-72
2022/05/31 07:00:18;;;;;;;;;14.67;13.67;;;;;;;;5038923;28;45352;-72
2022/05/31 07:02:43;;;;;;;;;22.67;17.33;;;;;;;;5039076;28;45376;-72
2022/05/31 07:05:10;;;;;;;;;12.67;12.33;;;;;;;;5038926;28;45204;-72
2022/05/31 07:07:36;;;;;;;;;16.00;12.67;;;;;;;;5038918;28;45282;-72
2022/05/31 07:10:01;;;;;;;;;13.00;13.00;;;;;;;;5038879;28;45274;-71
2022/05/31 07:12:27;;;;;;;;;14.00;9.33;;;;;;;;5038855;28;45556;-71
2022/05/31 07:14:53;;;;;;;;;12.67;9.00;;;;;;;;5038591;28;45374;-71
2022/05/31 07:17:18;;;;;;;;;15.33;10.67;;;;;;;;5038868;28;45250;-71
2022/05/31 07:19:43;;;;;;;;;12.33;11.00;;;;;;;;5038621;28;45317;-71
2022/05/31 07:22:08;;;;;;;;;11.67;9.67;;;;;;;;5038850;28;45450;-72
2022/05/31 07:24:34;;;;;;;;;6.00;6.00;;;;;;;;5038073;28;46551;-71
2022/05/31 07:26:59;;;;;;;;;10.33;7.00;;;;;;;;5038336;28;45357;-71
2022/05/31 07:29:25;;;;;;;;;15.67;14.33;;;;;;;;5038830;28;45361;-72
2022/05/31 07:31:50;;;;;;;;;7.00;5.00;;;;;;;;5038711;28;45369;-72
2022/05/31 07:34:16;;;;;;;;;8.00;6.00;;;;;;;;5038424;28;46340;-71
2022/05/31 07:36:41;;;;;;;;;6.67;5.67;;;;;;;;5038396;28;45448;-71
2022/05/31 07:39:14;;;;;;;;;7.00;6.00;;;;;;;;5037961;28;45405;-72
2022/05/31 07:41:39;;;;;;;;;5.33;4.67;;;;;;;;5038405;28;45379;-71
2022/05/31 07:44:05;;;;;;;;;6.33;5.33;;;;;;;;5038082;28;45301;-71
2022/05/31 07:46:30;;;;;;;;;11.00;9.67;;;;;;;;5038060;28;45474;-72
2022/05/31 07:48:56;;;;;;;;;19.00;15.67;;;;;;;;5038344;28;45392;-71
2022/05/31 07:51:22;;;;;;;;;6.67;6.67;;;;;;;;5038454;28;45317;-70
2022/05/31 07:53:47;;;;;;;;;4.33;4.33;;;;;;;;5037872;28;47482;-71
2022/05/31 07:56:12;;;;;;;;;6.00;5.00;;;;;;;;5037758;28;45451;-71
2022/05/31 07:58:39;;;;;;;;;8.00;5.00;;;;;;;;5038149;28;45420;-71
2022/05/31 08:01:10;;;;;;;;;3.00;3.00;;;;;;;;5038624;28;45295;-71
2022/05/31 08:03:36;;;;;;;;;2.00;2.00;;;;;;;;5037647;28;47077;-70
2022/05/31 08:06:02;;;;;;;;;3.67;3.67;;;;;;;;5037860;28;45370;-71
2022/05/31 08:08:27;;;;;;;;;7.67;4.33;;;;;;;;5038042;28;45324;-71
2022/05/31 08:10:53;;;;;;;;;9.00;9.00;;;;;;;;5038193;28;45432;-72
2022/05/31 08:13:18;;;;;;;;;11.00;9.00;;;;;;;;5037140;28;45426;-72
2022/05/31 08:15:43;;;;;;;;;9.33;7.67;;;;;;;;5037602;28;45246;-71
2022/05/31 08:18:08;;;;;;;;;4.00;4.00;;;;;;;;5038015;28;45712;-72
2022/05/31 08:20:34;;;;;;;;;5.00;4.67;;;;;;;;5037891;28;45496;-72
2022/05/31 08:23:01;;;;;;;;;5.00;3.67;;;;;;;;5037401;28;46192;-72
2022/05/31 08:25:26;;;;;;;;;4.00;3.00;;;;;;;;5037654;28;45274;-72
2022/05/31 08:27:52;;;;;;;;;6.00;6.00;;;;;;;;5037073;28;45335;-72
2022/05/31 08:30:17;;;;;;;;;4.00;4.00;;;;;;;;5037998;28;45547;-72
2022/05/31 08:32:42;;;;;;;;;3.00;3.00;;;;;;;;5037299;28;46127;-72
2022/05/31 08:35:08;;;;;;;;;3.00;3.00;;;;;;;;5036783;28;45215;-72
2022/05/31 08:37:33;;;;;;;;;4.00;3.00;;;;;;;;5037889;28;45464;-72
2022/05/31 08:39:58;;;;;;;;;3.33;3.33;;;;;;;;5037611;28;45583;-72
2022/05/31 08:42:44;;;;;;;;;7.00;3.67;;;;;;;;5035747;28;46590;-72
2022/05/31 08:45:26;;;;;;;;;5.00;2.00;;;;;;;;5036616;28;45329;-72
2022/05/31 08:48:01;;;;;;;;;3.00;3.00;;;;;;;;5036984;28;45305;-72
2022/05/31 08:53:24;;;;;;;;;6.33;6.33;;;;;;;;5036311;28;45748;-73
2022/05/31 08:59:06;;;;;;;;;3.00;3.00;;;;;;;;5036845;28;45382;-71
2022/05/31 09:01:37;;;;;;;;;2.00;2.00;;;;;;;;5022012;28;45539;-72
2022/05/31 09:04:13;;;;;;;;;2.00;2.00;;;;;;;;5036708;28;47312;-72
2022/05/31 09:06:44;;;;;;;;;4.67;4.00;;;;;;;;5037031;28;45258;-71
2022/05/31 09:09:11;;;;;;;;;2.67;2.67;;;;;;;;5036944;28;45176;-71
2022/05/31 09:11:41;;;;;;;;;2.00;2.00;;;;;;;;5036891;28;45419;-72
2022/05/31 09:14:06;;;;;;;;;3.67;2.00;;;;;;;;5037179;28;46525;-72
2022/05/31 09:16:41;;;;;;;;;2.00;2.00;;;;;;;;5035974;28;45421;-71
2022/05/31 09:19:08;;;;;;;;;4.00;1.00;;;;;;;;5037035;28;45314;-70
2022/05/31 09:21:38;;;;;;;;;1.00;1.00;;;;;;;;5037317;28;45397;-71
2022/05/31 09:24:24;;;;;;;;;1.00;1.00;;;;;;;;5036709;28;47055;-71
2022/05/31 09:27:04;;;;;;;;;0.33;0.33;;;;;;;;5036379;28;45378;-72
2022/05/31 09:29:38;;;;;;;;;1.00;1.00;;;;;;;;5036936;28;45166;-71
2022/05/31 09:32:04;;;;;;;;;4.67;4.67;;;;;;;;5037142;28;45305;-72
2022/05/31 09:34:42;;;;;;;;;2.00;1.00;;;;;;;;5036652;28;46216;-71
2022/05/31 09:37:08;;;;;;;;;1.00;1.00;;;;;;;;5036730;28;45266;-71
2022/05/31 09:39:51;;;;;;;;;1.00;1.00;;;;;;;;5036692;28;45450;-72
2022/05/31 09:42:40;;;;;;;;;3.67;3.67;;;;;;;;5036876;28;45420;-71
2022/05/31 09:45:13;;;;;;;;;1.00;1.00;;;;;;;;5013843;28;46601;-72
2022/05/31 09:47:39;;;;;;;;;12.67;9.67;;;;;;;;5017897;28;45437;-71
2022/05/31 09:50:04;;;;;;;;;2.67;2.67;;;;;;;;5018076;28;45432;-71
2022/05/31 09:52:42;;;;;;;;;1.00;1.00;;;;;;;;5018408;28;45358;-72
2022/05/31 09:58:13;;;;;;;;;4.00;2.00;;;;;;;;5017883;28;45389;-71
2022/05/31 10:00:56;;;;;;;;;1.67;1.67;;;;;;;;5018366;28;45412;-72
2022/05/31 10:03:31;;;;;;;;;1.00;1.00;;;;;;;;5018136;28;45503;-71
2022/05/31 10:06:03;;;;;;;;;2.00;1.00;;;;;;;;5017424;28;47282;-72
2022/05/31 10:08:33;;;;;;;;;2.00;2.00;;;;;;;;5017701;28;45507;-71
2022/05/31 10:11:02;;;;;;;;;1.00;1.00;;;;;;;;5017901;28;45397;-71
2022/05/31 10:13:38;;;;;;;;;1.67;1.67;;;;;;;;5017529;28;45605;-71
2022/05/31 10:16:15;;;;;;;;;0.67;0.67;;;;;;;;5017535;28;46136;-71
2022/05/31 10:18:51;;;;;;;;;1.00;1.00;;;;;;;;5017525;28;45433;-71
2022/05/31 10:21:46;;;;;;;;;1.00;1.00;;;;;;;;5021155;28;45402;-72
2022/05/31 10:24:19;;;;;;;;;0.67;0.67;;;;;;;;5017758;28;45461;-71
2022/05/31 10:26:46;;;;;;;;;2.67;2.67;;;;;;;;5017235;28;46243;-71
2022/05/31 10:29:16;;;;;;;;;1.00;1.00;;;;;;;;5017344;28;45318;-71
2022/05/31 10:31:43;;;;;;;;;1.00;1.00;;;;;;;;5017458;28;45300;-71
2022/05/31 10:34:27;;;;;;;;;1.00;1.00;;;;;;;;5017499;28;45435;-71
2022/05/31 10:36:57;;;;;;;;;1.00;1.00;;;;;;;;5017129;28;45527;-72
2022/05/31 10:39:24;;;;;;;;;4.33;4.33;;;;;;;;5017112;28;45343;-72
2022/05/31 10:41:52;;;;;;;;;3.00;1.00;;;;;;;;5017224;28;45353;-71
2022/05/31 10:44:34;;;;;;;;;1.00;1.00;;;;;;;;5017254;28;45549;-71
2022/05/31 10:47:02;;;;;;;;;2.00;1.00;;;;;;;;5016869;28;47597;-72
2022/05/31 10:49:27;;;;;;;;;1.00;1.00;;;;;;;;5017196;28;45364;-72
2022/05/31 10:52:11;;;;;;;;;2.00;2.00;;;;;;;;5017165;28;45298;-72
2022/05/31 10:54:52;;;;;;;;;2.00;2.00;;;;;;;;5017328;28;45357;-71
2022/05/31 10:57:17;;;;;;;;;2.00;2.00;;;;;;;;5016077;28;46382;-72
2022/05/31 10:59:57;;;;;;;;;4.33;3.00;;;;;;;;5020003;28;45456;-71
2022/05/31 11:02:29;;;;;;;;;2.00;2.00;;;;;;;;5039289;28;45290;-72
2022/05/31 11:04:57;;;;;;;;;1.33;1.33;;;;;;;;5039223;28;45381;-71
2022/05/31 11:07:33;;;;;;;;;1.00;1.00;;;;;;;;5038755;28;46010;-71
2022/05/31 11:12:56;;;;;;;;;1.00;1.00;;;;;;;;5038993;28;45297;-71
2022/05/31 11:15:35;;;;;;;;;0.00;0.00;;;;;;;;5039011;28;45296;-71
2022/05/31 11:18:02;;;;;;;;;2.00;2.00;;;;;;;;5038295;28;45561;-71
2022/05/31 11:20:41;;;;;;;;;3.00;1.67;;;;;;;;5038456;28;45393;-71
2022/05/31 11:23:09;;;;;;;;;4.00;4.00;;;;;;;;5038867;28;45468;-72
2022/05/31 11:25:38;;;;;;;;;3.00;2.00;;;;;;;;5038901;28;45296;-71
2022/05/31 11:28:12;;;;;;;;;2.67;1.00;;;;;;;;5038277;28;46028;-71
2022/05/31 11:31:16;;;;;;;;;1.33;1.33;;;;;;;;5038336;28;45343;-71
2022/05/31 11:34:00;;;;;;;;;3.67;2.33;;;;;;;;5038502;28;45519;-71
2022/05/31 11:36:37;;;;;;;;;2.00;2.00;;;;;;;;5037258;28;45251;-71
2022/05/31 11:39:02;;;;;;;;;1.00;1.00;;;;;;;;5038314;28;47345;-71
2022/05/31 11:41:37;;;;;;;;;2.00;2.00;;;;;;;;5038312;28;45306;-71
2022/05/31 11:44:41;;;;;;;;;7.00;4.00;;;;;;;;5037428;28;45616;-71
2022/05/31 11:47:24;;;;;;;;;2.67;2.67;;;;;;;;5003564;28;45504;-71
2022/05/31 11:49:49;;;;;;;;;1.33;1.33;;;;;;;;4997819;28;46437;-70
2022/05/31 11:52:24;;;;;;;;;4.00;3.00;;;;;;;;5015758;28;45265;-71
2022/05/31 11:55:28;;;;;;;;;6.67;3.67;;;;;;;;5015612;28;45436;-70
2022/05/31 11:58:04;;;;;;;;;5.67;5.67;;;;;;;;4996131;28;45577;-70
2022/05/31 12:00:37;;;;;;;;;3.33;3.00;;;;;;;;4996032;28;46269;-70
2022/05/31 12:03:07;;;;;;;;;3.00;3.00;;;;;;;;5024248;28;45610;-70
2022/05/31 12:05:36;;;;;;;;;2.67;2.00;;;;;;;;5035437;28;45293;-72
2022/05/31 12:08:04;;;;;;;;;5.00;3.00;;;;;;;;5016996;28;45353;-72
2022/05/31 12:10:41;;;;;;;;;4.00;4.00;;;;;;;;5015456;28;45298;-71
2022/05/31 12:13:08;;;;;;;;;3.00;3.00;;;;;;;;5015553;28;45341;-72
2022/05/31 12:15:38;;;;;;;;;7.67;6.00;;;;;;;;5015789;28;45368;-71
2022/05/31 12:18:30;;;;;;;;;3.00;1.67;;;;;;;;5048495;28;45509;-71
2022/05/31 12:21:01;;;;;;;;;2.00;2.00;;;;;;;;5025455;28;47295;-71
2022/05/31 12:23:34;;;;;;;;;3.67;2.00;;;;;;;;5036301;28;45527;-72
2022/05/31 12:26:04;;;;;;;;;4.00;1.00;;;;;;;;5037481;28;45663;-71
2022/05/31 12:28:37;;;;;;;;;3.00;2.33;;;;;;;;5037508;28;45563;-72
2022/05/31 12:31:20;;;;;;;;;2.67;2.67;;;;;;;;5036240;28;47385;-72
2022/05/31 12:33:47;;;;;;;;;3.00;1.33;;;;;;;;5036680;28;45419;-71
2022/05/31 12:36:13;;;;;;;;;2.67;2.67;;;;;;;;5037585;28;45258;-71
2022/05/31 12:38:54;;;;;;;;;1.33;1.33;;;;;;;;5037088;28;45382;-71
2022/05/31 12:41:40;;;;;;;;;2.00;1.00;;;;;;;;5037644;28;45451;-72
2022/05/31 12:44:28;;;;;;;;;1.00;1.00;;;;;;;;5036762;28;45437;-72
2022/05/31 12:46:56;;;;;;;;;2.33;2.00;;;;;;;;5014953;28;45402;-72
2022/05/31 12:49:24;;;;;;;;;2.00;2.00;;;;;;;;5014548;28;45291;-71
2022/05/31 12:52:09;;;;;;;;;3.00;1.67;;;;;;;;5014940;28;45263;-71
2022/05/31 12:54:48;;;;;;;;;3.33;2.00;;;;;;;;5015491;28;45328;-71
2022/05/31 12:57:22;;;;;;;;;3.33;2.00;;;;;;;;5015258;28;45544;-72
2022/05/31 12:59:48;;;;;;;;;3.67;1.67;;;;;;;;5015131;28;45281;-72
2022/05/31 13:02:23;;;;;;;;;2.00;2.00;;;;;;;;5015058;28;46186;-72
2022/05/31 13:04:55;;;;;;;;;1.33;1.33;;;;;;;;5014959;28;45268;-72
2022/05/31 13:07:24;;;;;;;;;2.00;2.00;;;;;;;;5014774;28;45746;-71
2022/05/31 13:10:09;;;;;;;;;1.00;1.00;;;;;;;;5013367;28;45543;-71
2022/05/31 13:19:34;;;;;;;;;1.00;1.00;;;;;;;;5013465;28;45524;-71
2022/05/31 13:21:11;;;;;;;;;2.67;1.00;;;;;;;;5017324;28;45435;-70
2022/05/31 13:23:41;;;;;;;;;2.00;2.00;;;;;;;;5025960;28;46091;-70
2022/05/31 13:26:16;;;;;;;;;1.33;1.33;;;;;;;;5039555;28;45401;-71
2022/05/31 13:28:50;;;;;;;;;3.33;1.00;;;;;;;;5039685;28;45321;-71
2022/05/31 13:31:17;;;;;;;;;1.00;1.00;;;;;;;;5040050;28;45424;-70
2022/05/31 13:33:45;;;;;;;;;1.00;1.00;;;;;;;;5039248;28;46373;-69
2022/05/31 13:36:14;;;;;;;;;2.00;2.00;;;;;;;;5039810;28;45520;-71
2022/05/31 13:38:49;;;;;;;;;1.00;0.67;;;;;;;;5039908;28;45377;-71
2022/05/31 13:41:17;;;;;;;;;1.33;1.33;;;;;;;;5040058;28;45400;-71
2022/05/31 13:43:50;;;;;;;;;1.00;1.00;;;;;;;;5039425;28;46065;-71
2022/05/31 13:46:15;;;;;;;;;2.67;1.00;;;;;;;;5039495;28;45429;-71
2022/05/31 13:48:47;;;;;;;;;3.33;2.00;;;;;;;;5039540;28;45527;-71
2022/05/31 13:51:19;;;;;;;;;0.33;0.00;;;;;;;;5039988;28;45413;-71
2022/05/31 13:53:46;;;;;;;;;1.00;1.00;;;;;;;;5039410;28;47397;-71
2022/05/31 13:56:16;;;;;;;;;5.00;4.00;;;;;;;;5038261;28;45453;-71
2022/05/31 13:58:48;;;;;;;;;2.00;2.00;;;;;;;;5038256;28;45403;-70
2022/05/31 14:01:22;;;;;;;;;2.00;2.00;;;;;;;;5039027;28;45381;-70
2022/05/31 14:03:47;;;;;;;;;2.00;2.00;;;;;;;;5038738;28;46325;-70
2022/05/31 14:06:14;;;;;;;;;3.00;1.00;;;;;;;;5038749;28;45452;-71
2022/05/31 14:08:46;;;;;;;;;3.00;2.00;;;;;;;;5038997;28;45693;-70
2022/05/31 14:11:14;;;;;;;;;3.33;3.33;;;;;;;;5039560;28;45448;-70
2022/05/31 14:13:40;;;;;;;;;3.00;1.33;;;;;;;;5038939;28;46437;-71
2022/05/31 14:16:16;;;;;;;;;8.00;8.00;;;;;;;;5039034;28;45480;-70
2022/05/31 14:19:01;;;;;;;;;2.67;2.67;;;;;;;;5039300;28;45374;-70
2022/05/31 14:21:28;;;;;;;;;2.67;2.00;;;;;;;;5039064;28;45391;-71
2022/05/31 14:23:56;;;;;;;;;3.00;3.00;;;;;;;;5037925;28;46405;-71
2022/05/31 14:26:22;;;;;;;;;2.00;2.00;;;;;;;;5038022;28;45402;-70
2022/05/31 14:29:26;;;;;;;;;1.33;1.33;;;;;;;;5038822;28;45401;-71
2022/05/31 14:32:03;;;;;;;;;2.00;1.00;;;;;;;;5015857;28;45443;-70
2022/05/31 14:34:29;;;;;;;;;1.00;1.00;;;;;;;;5016557;28;45469;-71
2022/05/31 14:36:59;;;;;;;;;1.00;1.00;;;;;;;;5016709;28;45580;-70
2022/05/31 14:39:47;;;;;;;;;1.00;1.00;;;;;;;;5034929;28;45636;-70
2022/05/31 14:42:16;;;;;;;;;0.00;0.00;;;;;;;;5036593;28;45406;-70
2022/05/31 14:44:51;;;;;;;;;1.00;1.00;;;;;;;;5036005;28;46154;-71
2022/05/31 14:47:25;;;;;;;;;2.00;2.00;;;;;;;;5036459;28;45337;-70
2022/05/31 14:50:08;;;;;;;;;1.00;1.00;;;;;;;;5026179;28;45502;-70
2022/05/31 14:52:46;;;;;;;;;0.67;0.67;;;;;;;;5033832;28;45474;-70
2022/05/31 14:55:11;;;;;;;;;1.33;1.33;;;;;;;;5021371;28;46505;-70
2022/05/31 15:00:32;;;;;;;;;1.00;1.00;;;;;;;;5023777;28;45590;-69
2022/05/31 15:02:59;;;;;;;;;3.00;3.00;;;;;;;;5046095;28;45861;-70
2022/05/31 15:05:26;;;;;;;;;9.67;9.00;;;;;;;;5054655;28;47231;-70
2022/05/31 15:07:56;;;;;;;;;1.00;1.00;;;;;;;;5054771;28;45437;-69
2022/05/31 15:10:21;;;;;;;;;1.00;1.00;;;;;;;;5055469;28;45881;-70
2022/05/31 15:21:07;;;;;;;;;4.00;1.33;;;;;;;;5056969;28;45755;-70
2022/05/31 15:23:32;;;;;;;;;3.00;2.00;;;;;;;;5056433;28;45346;-70